Port Heiden, AK

1:30 AM AKDT on August 24, 2016 (GMT -0800)
Port Heiden | | Change Station

Elev 95 ft 56.96 °N, 158.63 °W | Updated 34 minutes ago

Light Rain
Light Rain
57 °F
Feels Like 57 °F
N
13
Wind Variable Wind from ENE
Gusts 16 mph

Today
High -- | Low -- °F
--% Chance of Precip.
Yesterday
High -- | Low -- °F
Precip. -- in
Pressure 29.91 in
Visibility 10.0 miles
Clouds Few 4000 ft
Mostly Cloudy 7000 ft
Overcast 9000 ft
Dew Point 53 °F
Humidity 87%
Rainfall 0.03 in
Snow Depth Not available.
7:21 AM 9:49 PM
Waning Gibbous, 59% visible
METAR PAPH 240856Z AUTO 06011G14KT 10SM -RA FEW040 BKN070 OVC090 14/12 A2990 RMK AO2 SLP128 P0003 60024 T01390117 50001
Pressure 29.91 in
Visibility 10.0 miles
Clouds Few 4000 ft
Mostly Cloudy 7000 ft
Overcast 9000 ft
Dew Point 53 °F
Humidity 87%
Rainfall 0.03 in
Snow Depth Not available.
7:21 AM 9:49 PM
Waning Gibbous, 59% visible
METAR PAPH 240856Z AUTO 06011G14KT 10SM -RA FEW040 BKN070 OVC090 14/12 A2990 RMK AO2 SLP128 P0003 60024 T01390117 50001

10-Day Weather Forecast

Almanac

Astronomy

Aug. 24, 2016 Rise Set
Actual Time
Civil Twilight
Nautical Twilight
Astronomical Twilight
Moon
Length of Visible Light
Length of Day
Tomorrow will be .
, % of the Moon is Illuminated

Today's Extremes

State Highs State Lows

Community

WunderPhotos

Upload Photos

1,934,560 photos uploaded!

WunderBlog® & News

Nearby

Air Quality

  Air Quality AQ Index Pollutant
Not available.

Snow Depth

Station Depth Elevation

Earthquake Activity

City Distance Mag. Time & Date
Minimum magnitude displayed is 2.5.

Coastal Water Temperatures

Place Temperature

Stations

Nearby Weather Stations

Station Location Temp. Windchill Dew Point Humidity Wind Precip. Elev Updated Type
                   

Watches & Warnings

There are currently no watches in effect.